createdAt,value
2023-09-04T00:00:01.026Z,5.30
2023-09-04T00:02:47.756Z,5.47
2023-09-04T00:05:36.570Z,4.55
2023-09-04T00:08:22.671Z,4.80
2023-09-04T00:11:08.548Z,5.07
2023-09-04T00:13:54.331Z,4.90
2023-09-04T00:16:40.467Z,4.60
2023-09-04T00:19:26.274Z,4.72
2023-09-04T00:22:11.476Z,5.07
2023-09-04T00:24:56.897Z,4.63
2023-09-04T00:27:42.268Z,4.53
2023-09-04T00:30:27.721Z,4.40
2023-09-04T00:33:13.067Z,5.32
2023-09-04T00:35:58.565Z,4.60
2023-09-04T00:38:44.009Z,4.15
2023-09-04T00:41:29.369Z,4.53
2023-09-04T00:44:14.898Z,4.50
2023-09-04T00:47:00.697Z,4.13
2023-09-04T00:49:47.998Z,4.25
2023-09-04T00:55:19.990Z,4.47
2023-09-04T00:58:05.740Z,4.10
2023-09-04T01:00:51.406Z,5.07
2023-09-04T01:03:37.110Z,4.18
2023-09-04T01:06:22.547Z,4.68
2023-09-04T01:09:10.229Z,4.13
2023-09-04T01:12:11.532Z,4.70
2023-09-04T01:15:00.042Z,4.93
2023-09-04T01:17:46.621Z,4.25
2023-09-04T01:20:33.256Z,4.47
2023-09-04T01:23:18.920Z,4.32
2023-09-04T01:26:13.332Z,4.55
2023-09-04T01:29:43.988Z,4.13
2023-09-04T01:32:37.507Z,3.58
2023-09-04T01:35:24.411Z,5.55
2023-09-04T01:38:10.952Z,3.70
2023-09-04T01:40:56.993Z,4.57
2023-09-04T01:43:42.452Z,4.13
2023-09-04T01:46:27.955Z,4.78
2023-09-04T01:49:13.353Z,3.92
2023-09-04T01:52:01.332Z,4.30
2023-09-04T01:54:46.950Z,4.63
2023-09-04T01:57:32.269Z,4.78
2023-09-04T02:00:18.022Z,4.35
2023-09-04T02:03:03.949Z,4.93
2023-09-04T02:05:49.457Z,4.38
2023-09-04T02:08:35.409Z,4.15
2023-09-04T02:11:20.729Z,4.10
2023-09-04T02:14:07.821Z,4.55
2023-09-04T02:16:53.255Z,3.80
2023-09-04T02:19:38.642Z,4.53
2023-09-04T02:22:24.200Z,3.80
2023-09-04T02:25:09.480Z,4.43
2023-09-04T02:27:55.125Z,4.15
2023-09-04T02:30:40.766Z,4.80
2023-09-04T02:33:26.123Z,4.28
2023-09-04T02:36:12.779Z,4.53
2023-09-04T02:38:58.278Z,4.70
2023-09-04T02:41:43.630Z,4.60
2023-09-04T02:44:30.504Z,3.47
2023-09-04T02:47:16.185Z,4.75
2023-09-04T02:50:01.629Z,4.15
2023-09-04T02:52:46.881Z,3.97
2023-09-04T02:55:33.302Z,4.45
2023-09-04T02:58:18.704Z,3.88
2023-09-04T03:01:04.173Z,3.88
2023-09-04T03:03:50.601Z,4.25
2023-09-04T03:06:35.941Z,3.83
2023-09-04T03:09:21.340Z,4.43
2023-09-04T03:12:07.589Z,4.28
2023-09-04T03:15:05.680Z,4.05
2023-09-04T03:17:51.217Z,4.43
2023-09-04T03:20:36.536Z,3.88
2023-09-04T03:23:22.476Z,4.13
2023-09-04T03:26:08.207Z,5.07
2023-09-04T03:28:53.794Z,4.05
2023-09-04T03:31:39.820Z,4.72
2023-09-04T03:34:25.734Z,4.18
2023-09-04T03:37:11.445Z,4.07
2023-09-04T03:40:23.541Z,5.18
2023-09-04T03:43:09.151Z,5.20
2023-09-04T03:45:54.437Z,5.03
2023-09-04T03:48:39.836Z,4.82
2023-09-04T03:51:25.365Z,4.63
2023-09-04T03:54:11.027Z,4.70
2023-09-04T03:56:56.679Z,5.32
2023-09-04T03:59:42.006Z,5.05
2023-09-04T04:02:27.814Z,4.63
2023-09-04T04:05:15.210Z,4.30
2023-09-04T04:08:00.869Z,4.75
2023-09-04T04:10:46.460Z,4.13
2023-09-04T04:13:32.217Z,4.82
2023-09-04T04:16:17.868Z,3.65
2023-09-04T04:19:03.609Z,3.45
2023-09-04T04:21:48.958Z,4.03
2023-09-04T04:24:36.541Z,3.78
2023-09-04T04:27:21.991Z,3.90
2023-09-04T04:30:08.065Z,4.50
2023-09-04T04:32:53.973Z,4.05
2023-09-04T04:35:40.535Z,3.67
2023-09-04T04:38:26.340Z,3.97
2023-09-04T04:41:12.303Z,3.47
2023-09-04T04:43:58.089Z,4.50
2023-09-04T04:46:43.676Z,4.07
2023-09-04T04:49:29.035Z,3.97
2023-09-04T04:52:14.396Z,4.70
2023-09-04T04:54:59.863Z,3.95
2023-09-04T04:57:45.234Z,4.45
2023-09-04T05:00:30.709Z,4.07
2023-09-04T05:03:16.299Z,4.60
2023-09-04T05:06:03.300Z,6.32
2023-09-04T05:08:49.255Z,4.88
2023-09-04T05:11:36.770Z,4.20
2023-09-04T05:14:23.974Z,5.43
2023-09-04T05:17:09.414Z,4.18
2023-09-04T05:19:55.822Z,4.40
2023-09-04T05:22:41.160Z,4.45
2023-09-04T05:25:26.691Z,5.25
2023-09-04T05:28:13.334Z,6.00
2023-09-04T05:31:05.059Z,5.25
2023-09-04T05:33:50.982Z,5.30
2023-09-04T05:36:36.700Z,6.55
2023-09-04T05:39:22.207Z,5.03
2023-09-04T05:42:07.704Z,4.75
2023-09-04T05:44:53.105Z,5.47
2023-09-04T05:47:38.514Z,5.75
2023-09-04T05:50:23.950Z,5.22
2023-09-04T05:53:09.557Z,5.97
2023-09-04T05:56:10.922Z,5.03
2023-09-04T05:58:57.814Z,5.13
2023-09-04T06:01:43.645Z,4.90
2023-09-04T06:04:29.268Z,5.13
2023-09-04T06:07:16.131Z,5.95
2023-09-04T06:10:01.699Z,5.68
2023-09-04T06:12:47.054Z,5.47
2023-09-04T06:15:32.493Z,5.88
2023-09-04T06:18:18.489Z,5.88
2023-09-04T06:21:04.230Z,6.82
2023-09-04T06:23:49.620Z,7.20
2023-09-04T06:26:34.972Z,6.70
2023-09-04T06:29:20.592Z,7.53
2023-09-04T06:32:06.612Z,7.03
2023-09-04T06:34:52.173Z,6.25
2023-09-04T06:37:37.573Z,6.60
2023-09-04T06:40:24.026Z,6.20
2023-09-04T06:43:10.243Z,7.60
2023-09-04T06:45:55.899Z,6.85
2023-09-04T06:48:41.215Z,6.05
2023-09-04T06:51:26.864Z,7.07
2023-09-04T06:54:12.560Z,6.85
2023-09-04T06:56:57.835Z,6.93
2023-09-04T06:59:43.365Z,5.63
2023-09-04T07:02:28.763Z,6.53
2023-09-04T07:05:14.185Z,4.93
2023-09-04T07:07:59.785Z,5.57
2023-09-04T07:10:45.208Z,5.53
2023-09-04T07:13:30.655Z,5.15
2023-09-04T07:16:34.637Z,4.53
2023-09-04T07:19:22.554Z,4.55
2023-09-04T07:22:07.965Z,5.75
2023-09-04T07:24:53.983Z,3.70
2023-09-04T07:27:39.570Z,4.45
2023-09-04T07:30:24.938Z,3.83
2023-09-04T07:33:10.462Z,4.50
2023-09-04T07:35:56.126Z,3.35
2023-09-04T07:38:42.309Z,3.28
2023-09-04T07:41:27.966Z,3.78
2023-09-04T07:44:13.551Z,3.70
2023-09-04T07:46:59.125Z,3.70
2023-09-04T07:49:45.011Z,4.10
2023-09-04T07:52:30.321Z,3.28
2023-09-04T07:55:16.241Z,3.20
2023-09-04T07:58:01.810Z,2.92
2023-09-04T08:00:52.271Z,2.95
2023-09-04T08:03:37.708Z,2.45
2023-09-04T08:06:23.275Z,2.60
2023-09-04T08:09:08.514Z,2.05
2023-09-04T08:11:54.130Z,2.00
2023-09-04T08:14:39.607Z,1.98
2023-09-04T08:17:27.309Z,1.65
2023-09-04T08:20:13.695Z,1.80
2023-09-04T08:22:59.126Z,1.83
2023-09-04T08:25:44.533Z,2.13
2023-09-04T08:28:30.249Z,1.95
2023-09-04T08:31:15.878Z,1.63
2023-09-04T08:34:03.439Z,1.92
2023-09-04T08:39:34.820Z,2.10
2023-09-04T08:42:20.665Z,1.65
2023-09-04T08:45:10.044Z,1.75
2023-09-04T08:47:56.550Z,1.50
2023-09-04T08:50:43.339Z,1.90
2023-09-04T08:53:29.051Z,1.80
2023-09-04T08:56:16.369Z,1.58
2023-09-04T08:59:01.688Z,1.83
2023-09-04T09:01:47.691Z,2.17
2023-09-04T09:04:34.416Z,1.60
2023-09-04T09:07:24.574Z,1.88
2023-09-04T09:10:15.320Z,1.40
2023-09-04T09:13:00.937Z,1.33
2023-09-04T09:15:46.323Z,1.83
2023-09-04T09:18:44.078Z,1.75
2023-09-04T09:21:36.159Z,1.50
2023-09-04T09:24:21.780Z,1.48
2023-09-04T09:27:07.213Z,1.33
2023-09-04T09:29:53.360Z,1.20
2023-09-04T09:32:38.945Z,1.48
2023-09-04T09:35:24.400Z,1.45
2023-09-04T09:38:10.093Z,1.30
2023-09-04T09:40:56.601Z,1.60
2023-09-04T09:43:42.798Z,1.30
2023-09-04T09:46:29.811Z,1.30
2023-09-04T09:49:15.189Z,1.63
2023-09-04T09:52:00.565Z,1.58
2023-09-04T09:54:48.337Z,1.35
2023-09-04T09:57:36.314Z,1.52
2023-09-04T10:00:21.936Z,1.52
2023-09-04T10:03:08.061Z,1.80
2023-09-04T10:05:56.075Z,1.60
2023-09-04T10:08:44.892Z,1.42
2023-09-04T10:11:33.929Z,1.38
2023-09-04T10:14:29.373Z,1.83
2023-09-04T10:17:37.802Z,1.60
2023-09-04T10:23:14.628Z,1.67
2023-09-04T10:26:12.904Z,1.95
2023-09-04T10:29:09.899Z,1.55
2023-09-04T10:31:56.910Z,1.60
2023-09-04T10:34:42.684Z,1.52
2023-09-04T10:37:32.193Z,1.70
2023-09-04T10:40:18.922Z,1.25
2023-09-04T10:43:05.033Z,1.67
2023-09-04T10:46:14.926Z,1.13
2023-09-04T10:49:00.646Z,1.38
2023-09-04T10:51:48.822Z,1.40
2023-09-04T10:54:34.672Z,1.75
2023-09-04T10:57:23.299Z,1.50
2023-09-04T11:00:09.612Z,1.50
2023-09-04T11:02:55.418Z,1.20
2023-09-04T11:06:06.397Z,1.13
2023-09-04T11:08:52.722Z,2.17
2023-09-04T11:11:39.764Z,1.40
2023-09-04T11:14:33.955Z,1.27
2023-09-04T11:17:31.252Z,2.25
2023-09-04T11:20:18.459Z,1.35
2023-09-04T11:23:05.108Z,1.13
2023-09-04T11:25:53.999Z,1.40
2023-09-04T11:28:40.625Z,1.58
2023-09-04T11:31:28.234Z,1.08
2023-09-04T11:34:23.558Z,1.75
2023-09-04T11:37:09.319Z,1.52
2023-09-04T11:40:03.752Z,1.27
2023-09-04T11:42:51.995Z,1.10
2023-09-04T11:45:37.552Z,0.93
2023-09-04T11:48:24.946Z,1.13
2023-09-04T11:53:56.907Z,0.93
2023-09-04T11:56:42.364Z,0.90
2023-09-04T11:59:27.941Z,1.35
2023-09-04T12:02:13.845Z,1.10
2023-09-04T12:05:01.168Z,0.98
2023-09-04T12:07:47.656Z,1.00
2023-09-04T12:10:38.683Z,1.30
2023-09-04T12:13:24.642Z,1.23
2023-09-04T12:16:11.566Z,1.00
2023-09-04T12:18:57.478Z,1.00
2023-09-04T12:21:43.120Z,0.95
2023-09-04T12:24:29.072Z,1.10
2023-09-04T12:27:15.345Z,1.48
2023-09-04T12:30:00.980Z,1.30
2023-09-04T12:32:46.738Z,0.90
2023-09-04T12:35:38.311Z,1.23
2023-09-04T12:38:25.247Z,1.13
2023-09-04T12:41:10.575Z,1.10
2023-09-04T12:43:56.094Z,1.10
2023-09-04T12:46:41.567Z,1.10
2023-09-04T12:49:27.142Z,1.00
2023-09-04T12:52:12.540Z,1.23
2023-09-04T12:54:58.309Z,1.52
2023-09-04T12:57:46.792Z,1.30
2023-09-04T13:00:32.917Z,1.10
2023-09-04T13:03:18.529Z,1.42
2023-09-04T13:06:04.187Z,1.23
2023-09-04T13:08:49.919Z,1.17
2023-09-04T13:11:35.989Z,1.50
2023-09-04T13:14:21.638Z,1.40
2023-09-04T13:17:07.026Z,1.20
2023-09-04T13:19:53.175Z,1.17
2023-09-04T13:22:40.565Z,1.17
2023-09-04T13:25:26.341Z,1.30
2023-09-04T13:28:11.891Z,1.10
2023-09-04T13:30:57.430Z,1.00
2023-09-04T13:33:43.035Z,1.20
2023-09-04T13:36:28.574Z,1.23
2023-09-04T13:39:14.087Z,1.38
2023-09-04T13:41:59.619Z,1.35
2023-09-04T13:44:44.961Z,1.23
2023-09-04T13:47:30.432Z,1.00
2023-09-04T13:50:16.161Z,1.00
2023-09-04T13:53:01.681Z,1.13
2023-09-04T13:55:49.128Z,1.20
2023-09-04T14:01:20.155Z,1.58
2023-09-04T14:04:05.867Z,1.33
2023-09-04T14:06:51.434Z,0.95
2023-09-04T14:09:38.223Z,1.75
2023-09-04T14:12:24.066Z,1.42
2023-09-04T14:15:10.133Z,1.20
2023-09-04T14:17:55.566Z,1.10
2023-09-04T14:20:43.139Z,1.10
2023-09-04T14:23:28.515Z,1.48
2023-09-04T14:26:14.027Z,1.23
2023-09-04T14:28:59.280Z,1.00
2023-09-04T14:31:45.020Z,1.30
2023-09-04T14:34:30.680Z,1.42
2023-09-04T14:37:18.199Z,1.05
2023-09-04T14:40:07.481Z,1.08
2023-09-04T14:42:52.906Z,1.00
2023-09-04T14:45:38.599Z,1.40
2023-09-04T14:48:24.722Z,1.20
2023-09-04T14:51:10.237Z,1.08
2023-09-04T14:53:55.986Z,1.25
2023-09-04T14:56:41.047Z,1.27
2023-09-04T14:59:26.552Z,1.10
2023-09-04T15:02:12.108Z,1.05
2023-09-04T15:04:57.598Z,1.33
2023-09-04T15:07:44.756Z,1.00
2023-09-04T15:10:30.104Z,1.10
2023-09-04T15:13:15.504Z,1.10
2023-09-04T15:16:05.250Z,1.10
2023-09-04T15:18:50.909Z,1.25
2023-09-04T15:21:36.343Z,1.10
2023-09-04T15:24:21.739Z,1.10
2023-09-04T15:27:07.234Z,1.30
2023-09-04T15:29:53.814Z,1.15
2023-09-04T15:32:40.453Z,1.65
2023-09-04T15:35:25.910Z,1.25
2023-09-04T15:38:11.589Z,1.40
2023-09-04T15:40:57.262Z,1.20
2023-09-04T15:43:42.618Z,1.35
2023-09-04T15:46:28.273Z,1.17
2023-09-04T15:49:13.532Z,1.10
2023-09-04T15:51:59.093Z,1.52
2023-09-04T15:54:44.587Z,1.10
2023-09-04T15:57:30.194Z,1.10
2023-09-04T16:00:15.874Z,1.27
2023-09-04T16:03:01.510Z,1.13
2023-09-04T16:05:47.795Z,1.40
2023-09-04T16:08:33.324Z,1.30
2023-09-04T16:11:18.804Z,1.40
2023-09-04T16:14:04.382Z,1.30
2023-09-04T16:16:49.779Z,1.35
2023-09-04T16:19:35.249Z,1.42
2023-09-04T16:22:21.463Z,1.40
2023-09-04T16:25:07.670Z,1.70
2023-09-04T16:27:53.205Z,1.67
2023-09-04T16:30:38.967Z,1.42
2023-09-04T16:33:24.745Z,1.10
2023-09-04T16:36:10.371Z,1.30
2023-09-04T16:38:55.869Z,1.35
2023-09-04T16:41:41.506Z,1.30
2023-09-04T16:44:26.929Z,1.60
2023-09-04T16:47:12.569Z,1.20
2023-09-04T16:49:58.113Z,1.25
2023-09-04T16:52:43.499Z,1.30
2023-09-04T16:55:29.141Z,1.20
2023-09-04T16:58:14.503Z,1.10
2023-09-04T17:01:01.240Z,1.00
2023-09-04T17:03:46.838Z,1.60
2023-09-04T17:06:32.449Z,1.27
2023-09-04T17:09:18.085Z,1.40
2023-09-04T17:12:03.774Z,1.48
2023-09-04T17:14:49.504Z,1.50
2023-09-04T17:17:34.923Z,1.30
2023-09-04T17:20:20.311Z,1.83
2023-09-04T17:23:05.817Z,1.55
2023-09-04T17:25:51.328Z,1.30
2023-09-04T17:28:36.833Z,1.55
2023-09-04T17:31:22.192Z,1.35
2023-09-04T17:34:07.646Z,1.50
2023-09-04T17:36:53.518Z,1.42
2023-09-04T17:39:38.993Z,1.17
2023-09-04T17:42:24.523Z,1.42
2023-09-04T17:45:10.323Z,1.65
2023-09-04T17:47:56.302Z,1.27
2023-09-04T17:50:43.547Z,1.17
2023-09-04T17:56:14.786Z,1.40
2023-09-04T17:59:00.294Z,1.17
2023-09-04T18:01:45.879Z,1.20
2023-09-04T18:04:31.288Z,1.33
2023-09-04T18:07:16.592Z,1.63
2023-09-04T18:10:02.075Z,1.73
2023-09-04T18:12:47.603Z,1.27
2023-09-04T18:15:33.498Z,1.10
2023-09-04T18:18:19.120Z,1.30
2023-09-04T18:21:04.639Z,1.40
2023-09-04T18:23:50.871Z,1.70
2023-09-04T18:26:37.940Z,1.55
2023-09-04T18:29:23.193Z,1.20
2023-09-04T18:32:08.962Z,1.35
2023-09-04T18:34:54.321Z,1.70
2023-09-04T18:37:39.912Z,1.38
2023-09-04T18:40:25.880Z,1.45
2023-09-04T18:43:11.365Z,1.38
2023-09-04T18:45:57.983Z,1.55
2023-09-04T18:48:43.349Z,1.90
2023-09-04T18:51:28.750Z,1.60
2023-09-04T18:54:14.614Z,1.52
2023-09-04T18:57:00.124Z,1.52
2023-09-04T18:59:45.562Z,1.30
2023-09-04T19:02:31.141Z,2.00
2023-09-04T19:05:16.767Z,1.38
2023-09-04T19:08:02.537Z,1.30
2023-09-04T19:10:47.874Z,1.80
2023-09-04T19:13:33.877Z,1.65
2023-09-04T19:16:21.787Z,1.63
2023-09-04T19:19:07.557Z,1.60
2023-09-04T19:21:53.106Z,1.65
2023-09-04T19:24:40.478Z,1.67
2023-09-04T19:27:26.650Z,1.50
2023-09-04T19:30:13.806Z,1.50
2023-09-04T19:32:59.552Z,1.70
2023-09-04T19:35:45.183Z,1.60
2023-09-04T19:38:31.277Z,1.50
2023-09-04T19:41:17.004Z,1.45
2023-09-04T19:44:02.638Z,1.30
2023-09-04T19:46:48.426Z,1.25
2023-09-04T19:49:33.636Z,1.25
2023-09-04T19:52:19.181Z,1.48
2023-09-04T19:55:05.316Z,1.40
2023-09-04T19:57:51.353Z,1.70
2023-09-04T20:00:37.035Z,1.55
2023-09-04T20:03:22.520Z,1.83
2023-09-04T20:06:09.914Z,1.50
2023-09-04T20:08:55.616Z,1.10
2023-09-04T20:11:41.203Z,1.20
2023-09-04T20:14:27.390Z,1.58
2023-09-04T20:17:12.761Z,1.50
2023-09-04T20:19:58.356Z,1.30
2023-09-04T20:22:43.773Z,1.90
2023-09-04T20:25:29.374Z,1.05
2023-09-04T20:28:15.215Z,1.80
2023-09-04T20:31:01.054Z,1.13
2023-09-04T20:33:46.683Z,1.70
2023-09-04T20:36:32.305Z,1.65
2023-09-04T20:39:17.966Z,1.40
2023-09-04T20:42:05.207Z,1.50
2023-09-04T20:44:50.823Z,1.88
2023-09-04T20:47:36.655Z,1.45
2023-09-04T20:50:22.317Z,1.70
2023-09-04T20:53:08.152Z,1.85
2023-09-04T20:55:53.905Z,1.70
2023-09-04T20:58:41.555Z,1.25
2023-09-04T21:01:27.244Z,1.35
2023-09-04T21:04:12.868Z,1.30
2023-09-04T21:07:08.634Z,1.50
2023-09-04T21:09:54.033Z,1.52
2023-09-04T21:12:58.094Z,1.27
2023-09-04T21:16:02.195Z,1.45
2023-09-04T21:19:06.233Z,1.73
2023-09-04T21:22:10.372Z,1.70
2023-09-04T21:25:14.271Z,1.13
2023-09-04T21:28:19.496Z,2.55
2023-09-04T21:31:23.436Z,1.35
2023-09-04T21:34:27.534Z,1.42
2023-09-04T21:37:31.590Z,1.52
2023-09-04T21:40:35.616Z,1.80
2023-09-04T21:43:39.481Z,1.15
2023-09-04T21:46:43.398Z,1.35
2023-09-04T21:49:47.414Z,1.30
2023-09-04T21:52:51.561Z,1.20
2023-09-04T21:55:55.673Z,1.45
2023-09-04T21:58:59.771Z,1.33
2023-09-04T22:02:03.795Z,1.20
2023-09-04T22:05:08.100Z,1.65
2023-09-04T22:08:12.158Z,1.30
2023-09-04T22:11:16.177Z,1.17
2023-09-04T22:14:20.257Z,1.45
2023-09-04T22:17:24.425Z,1.85
2023-09-04T22:20:29.063Z,1.65
2023-09-04T22:23:33.062Z,1.17
2023-09-04T22:26:36.976Z,0.98
2023-09-04T22:29:42.842Z,1.70
2023-09-04T22:32:46.952Z,1.90
2023-09-04T22:35:50.788Z,1.45
2023-09-04T22:38:54.835Z,1.15
2023-09-04T22:41:58.898Z,1.80
2023-09-04T22:45:02.833Z,1.52
2023-09-04T22:48:07.201Z,1.35
2023-09-04T22:51:11.126Z,1.30
2023-09-04T22:54:15.140Z,1.52
2023-09-04T22:57:19.123Z,1.10
2023-09-04T23:00:27.202Z,1.38
2023-09-04T23:03:34.680Z,1.25
2023-09-04T23:06:38.664Z,1.30
2023-09-04T23:09:42.734Z,1.48
2023-09-04T23:12:46.748Z,1.38
2023-09-04T23:15:51.163Z,1.33
2023-09-04T23:18:54.978Z,1.33
2023-09-04T23:21:40.547Z,1.63
2023-09-04T23:24:25.953Z,1.27
2023-09-04T23:27:12.939Z,1.70
2023-09-04T23:29:58.794Z,0.88
2023-09-04T23:33:02.683Z,1.20
2023-09-04T23:36:16.744Z,1.55
2023-09-04T23:39:18.077Z,1.40
2023-09-04T23:42:22.751Z,1.73
2023-09-04T23:45:12.101Z,1.65
2023-09-04T23:47:58.309Z,1.40
2023-09-04T23:50:44.223Z,1.38
2023-09-04T23:53:29.819Z,1.23
2023-09-04T23:56:15.119Z,1.60
2023-09-04T23:59:00.383Z,1.30
